Winnemucca, NV

5:44 PM PDT on October 24, 2014 (GMT -0700)
Rome State | Change Station
CLOSE
Current Station
Airport
Location: Rome,
Elevation: 4049 ft
Nearby Weather Stations
Active Advisory: Wind Advisory Active Notice: Record Report

Elev 4049 ft 42.59 °N, 117.86 °W | Updated 52 minutes ago

Clear
Clear
73 °F
Feels Like 73 °F
N
13
Wind Variable Wind from SSW
Gusts 18 mph

Today
High -- | Low -- °F
--% Chance of Precip.
Yesterday
High -- | Low -- °F
Precip. -- in
7:12 AM 5:57 PM
New Moon, 1% visible
Pressure 29.86 in
Visibility -9999.0 miles
Clouds
Dew Point 24 °F
Humidity 16%
Rainfall 0.00 in
Snow Depth Not available.
UV Not available.
Pollen 2.80 out of 12
Air Quality Not available.
Flu Activity No Activity
METAR KREO 242352Z AUTO 21011G16KT 23/M04 A2993 RMK AO1 SLP111 T02281044 10233 20133 56017

More Conditions Fewer Conditions

Pressure 29.86 in
Visibility -9999.0 miles
Clouds
Dew Point 24 °F
Humidity 16%
Rainfall 0.00 in
Snow Depth Not available.
UV Not available.
Pollen 2.80 out of 12
Air Quality Not available.
Flu Activity No Activity
METAR KREO 242352Z AUTO 21011G16KT 23/M04 A2993 RMK AO1 SLP111 T02281044 10233 20133 56017

More Conditions Fewer Conditions

10-Day Weather Forecast

Almanac

Astronomy

Oct. 24, 2014 Rise Set
Actual Time 7:12 AM PDT 5:57 PM PDT
Civil Twilight 6:44 AM PDT 6:25 PM PDT
Nautical Twilight 6:12 AM PDT 6:57 PM PDT
Astronomical Twilight 5:40 AM PDT 7:29 PM PDT
Moon 7:56 AM PDT (10/24) 6:39 PM PDT (10/24)
Length of Visible Light 11h 40m
Length of Day
10h 44m
Tomorrow will be 2m 33s shorter.
New Moon, 1% of the Moon is Illuminated
Today
New Moon
Oct 30
First Quarter
Nov 6
Full
Nov 14
Last Quarter
Nov 22
New

Today's Extremes

State Highs State Lows

Community

WunderPhotos

Upload Photos

1,764,735 photos uploaded!

WunderBlogs® & News

Nearby

Snow Depth

Station Depth Elevation
Lamance Creek 0 in 6000 ft
Granite Peak 1 in 7800 ft
Disaster Peak 0 in 6500 ft
Taylor Canyon 0 in 6200 ft
Jacks Peak 0 in 8420 ft

Earthquake Activity

City Distance Mag. Time & Date
Gerlach-Empire, Nevada 116 miles 2.5 7:16 AM PDT
2014-10-23
Minimum magnitude displayed is 2.5.

Coastal Water Temperatures

Place Temperature
No Stations Reporting

Nearby Weather Stations